Time,TemperatureF,DewpointF,PressureIn,WindDirection,WindDirectionDegrees,WindSpeedMPH,WindSpeedGustMPH,Humidity,HourlyPrecipIn,Conditions,Clouds,dailyrainin,SoftwareType,DateUTC
2013-03-29 00:14:00,41.9,37.1,30.42,West,270,6.3,-999.0,83,-99.99,,,0.00,Acu-Link.com,2013-03-29 04:14:00,
2013-03-29 00:29:00,41.5,37.1,30.43,West,270,5.8,-999.0,84,-99.99,,,0.00,Acu-Link.com,2013-03-29 04:29:00,
2013-03-29 00:44:00,40.8,37.0,30.43,NW,315,7.8,-999.0,86,-99.99,,,0.00,Acu-Link.com,2013-03-29 04:44:00,
2013-03-29 01:00:00,40.5,36.6,30.43,West,270,7.4,-999.0,86,-99.99,,,0.00,Acu-Link.com,2013-03-29 05:00:00,
2013-03-29 01:15:00,40.6,36.8,30.43,West,270,5.1,-999.0,86,-99.99,,,0.00,Acu-Link.com,2013-03-29 05:15:00,
2013-03-29 01:30:00,40.6,36.8,30.43,WNW,292,9.4,-999.0,86,-99.99,,,0.00,Acu-Link.com,2013-03-29 05:30:00,
2013-03-29 01:45:00,40.6,36.5,30.43,NW,315,13.0,-999.0,85,-99.99,,,0.00,Acu-Link.com,2013-03-29 05:45:00,
2013-03-29 02:01:00,40.3,36.1,30.43,NNE,22,3.1,-999.0,85,-99.99,,,0.00,Acu-Link.com,2013-03-29 06:01:00,
2013-03-29 02:16:00,39.9,35.8,30.43,NW,315,3.8,-999.0,85,-99.99,,,0.00,Acu-Link.com,2013-03-29 06:16:00,
2013-03-29 03:01:00,39.6,34.8,30.44,West,270,7.8,-999.0,83,-99.99,,,0.00,Acu-Link.com,2013-03-29 07:01:00,
2013-03-29 03:17:00,39.2,34.5,30.43,NW,315,10.3,-999.0,83,-99.99,,,0.00,Acu-Link.com,2013-03-29 07:17:00,
2013-03-29 03:32:00,39.2,34.5,30.43,NNE,22,3.8,-999.0,83,-99.99,,,0.00,Acu-Link.com,2013-03-29 07:32:00,
2013-03-29 03:47:00,39.2,34.2,30.43,West,270,8.3,-999.0,82,-99.99,,,0.00,Acu-Link.com,2013-03-29 07:47:00,
2013-03-29 04:03:00,39.2,34.2,30.43,NW,315,11.0,-999.0,82,-99.99,,,0.00,Acu-Link.com,2013-03-29 08:03:00,
2013-03-29 04:18:00,39.2,34.2,30.42,NW,315,9.4,-999.0,82,-99.99,,,0.00,Acu-Link.com,2013-03-29 08:18:00,
2013-03-29 04:33:00,39.2,34.2,30.43,WNW,292,7.8,-999.0,82,-99.99,,,0.00,Acu-Link.com,2013-03-29 08:33:00,
2013-03-29 04:48:00,39.0,34.3,30.43,NW,315,8.9,-999.0,83,-99.99,,,0.00,Acu-Link.com,2013-03-29 08:48:00,
2013-03-29 05:03:00,38.5,34.1,30.43,NW,315,2.7,-999.0,84,-99.99,,,0.00,Acu-Link.com,2013-03-29 09:03:00,
2013-03-29 05:18:00,38.1,33.7,30.42,NW,315,9.4,-999.0,84,-99.99,,,0.00,Acu-Link.com,2013-03-29 09:18:00,
2013-03-29 05:33:00,37.8,33.4,30.42,West,270,6.7,-999.0,84,-99.99,,,0.00,Acu-Link.com,2013-03-29 09:33:00,
2013-03-29 05:48:00,37.9,33.5,30.43,West,270,7.4,-999.0,84,-99.99,,,0.00,Acu-Link.com,2013-03-29 09:48:00,
2013-03-29 06:04:00,37.8,33.4,30.42,West,270,4.3,-999.0,84,-99.99,,,0.00,Acu-Link.com,2013-03-29 10:04:00,
2013-03-29 06:19:00,37.8,33.4,30.43,NW,315,10.3,-999.0,84,-99.99,,,0.00,Acu-Link.com,2013-03-29 10:19:00,
2013-03-29 06:34:00,37.8,33.4,30.43,West,270,8.3,-999.0,84,-99.99,,,0.00,Acu-Link.com,2013-03-29 10:34:00,
2013-03-29 06:49:00,37.8,33.1,30.43,NW,315,11.0,-999.0,83,-99.99,,,0.00,Acu-Link.com,2013-03-29 10:49:00,
2013-03-29 07:05:00,37.6,33.2,30.44,West,270,5.1,-999.0,84,-99.99,,,0.00,Acu-Link.com,2013-03-29 11:05:00,
2013-03-29 07:20:00,37.8,33.4,30.43,West,270,6.3,-999.0,84,-99.99,,,0.00,Acu-Link.com,2013-03-29 11:20:00,
2013-03-29 07:35:00,38.3,33.3,30.44,West,270,7.8,-999.0,82,-99.99,,,0.00,Acu-Link.com,2013-03-29 11:35:00,
2013-03-29 07:50:00,39.6,34.2,30.44,NW,315,5.8,-999.0,81,-99.99,,,0.00,Acu-Link.com,2013-03-29 11:50:00,
2013-03-29 08:05:00,40.3,34.6,30.45,WNW,292,9.4,-999.0,80,-99.99,,,0.00,Acu-Link.com,2013-03-29 12:05:00,
2013-03-29 08:21:00,40.6,35.0,30.45,WSW,247,8.3,-999.0,80,-99.99,,,0.00,Acu-Link.com,2013-03-29 12:21:00,
2013-03-29 08:36:00,41.2,35.2,30.44,WNW,292,9.8,-999.0,79,-99.99,,,0.00,Acu-Link.com,2013-03-29 12:36:00,
2013-03-29 09:06:00,44.2,36.5,30.44,WNW,292,9.8,-999.0,74,-99.99,,,0.00,Acu-Link.com,2013-03-29 13:06:00,
2013-03-29 09:21:00,46.0,37.5,30.45,West,270,4.7,-999.0,72,-99.99,,,0.00,Acu-Link.com,2013-03-29 13:21:00,
2013-03-29 09:37:00,47.5,37.8,30.44,West,270,9.8,-999.0,69,-99.99,,,0.00,Acu-Link.com,2013-03-29 13:37:00,
2013-03-29 09:52:00,48.0,38.3,30.44,SW,225,4.7,-999.0,69,-99.99,,,0.00,Acu-Link.com,2013-03-29 13:52:00,
2013-03-29 10:07:00,50.2,38.9,30.44,ENE,67,8.9,-999.0,65,-99.99,,,0.00,Acu-Link.com,2013-03-29 14:07:00,
2013-03-29 10:22:00,50.9,38.8,30.44,NW,315,8.9,-999.0,63,-99.99,,,0.00,Acu-Link.com,2013-03-29 14:22:00,
2013-03-29 10:37:00,51.1,38.9,30.44,WNW,292,11.9,-999.0,63,-99.99,,,0.00,Acu-Link.com,2013-03-29 14:37:00,
2013-03-29 10:53:00,51.1,38.1,30.45,NW,315,10.3,-999.0,61,-99.99,,,0.00,Acu-Link.com,2013-03-29 14:53:00,
2013-03-29 11:08:00,50.9,37.9,30.45,WNW,292,6.3,-999.0,61,-99.99,,,0.00,Acu-Link.com,2013-03-29 15:08:00,
2013-03-29 11:23:00,53.2,38.8,30.44,NNW,337,11.9,-999.0,58,-99.99,,,0.00,Acu-Link.com,2013-03-29 15:23:00,
2013-03-29 11:38:00,53.6,40.1,30.45,West,270,8.3,-999.0,60,-99.99,,,0.00,Acu-Link.com,2013-03-29 15:38:00,
2013-03-29 11:54:00,53.6,40.5,30.44,NW,315,11.9,-999.0,61,-99.99,,,0.00,Acu-Link.com,2013-03-29 15:54:00,
2013-03-29 12:09:00,55.0,41.4,30.43,West,270,7.8,-999.0,60,-99.99,,,0.00,Acu-Link.com,2013-03-29 16:09:00,
2013-03-29 12:24:00,55.0,42.3,30.43,ENE,67,4.7,-999.0,62,-99.99,,,0.00,Acu-Link.com,2013-03-29 16:24:00,
2013-03-29 12:39:00,52.3,38.0,30.42,West,270,5.8,-999.0,58,-99.99,,,0.00,Acu-Link.com,2013-03-29 16:39:00,
2013-03-29 12:54:00,52.3,38.0,30.42,ENE,67,7.8,-999.0,58,-99.99,,,0.00,Acu-Link.com,2013-03-29 16:54:00,
2013-03-29 13:10:00,51.6,37.3,30.41,West,270,2.2,-999.0,58,-99.99,,,0.00,Acu-Link.com,2013-03-29 17:10:00,
2013-03-29 13:25:00,52.5,37.7,30.41,West,270,5.8,-999.0,57,-99.99,,,0.00,Acu-Link.com,2013-03-29 17:25:00,
2013-03-29 13:40:00,52.0,36.8,30.40,NW,315,13.0,-999.0,56,-99.99,,,0.00,Acu-Link.com,2013-03-29 17:40:00,
2013-03-29 13:55:00,52.0,37.2,30.40,WNW,292,6.7,-999.0,57,-99.99,,,0.00,Acu-Link.com,2013-03-29 17:55:00,
2013-03-29 14:10:00,51.8,37.1,30.40,East,90,3.8,-999.0,57,-99.99,,,0.00,Acu-Link.com,2013-03-29 18:10:00,
2013-03-29 14:26:00,53.8,38.0,30.39,WNW,292,11.4,-999.0,55,-99.99,,,0.00,Acu-Link.com,2013-03-29 18:26:00,
2013-03-29 14:56:00,51.4,36.3,30.38,NW,315,7.4,-999.0,56,-99.99,,,0.00,Acu-Link.com,2013-03-29 18:56:00,
2013-03-29 15:26:00,51.1,38.1,30.38,West,270,5.8,-999.0,61,-99.99,,,0.00,Acu-Link.com,2013-03-29 19:26:00,
2013-03-29 15:42:00,52.7,37.9,30.37,South,180,9.4,-999.0,57,-99.99,,,0.00,Acu-Link.com,2013-03-29 19:42:00,
2013-03-29 15:57:00,51.4,38.0,30.37,West,270,5.8,-999.0,60,-99.99,,,0.00,Acu-Link.com,2013-03-29 19:57:00,
2013-03-29 16:12:00,51.1,38.9,30.37,NW,315,7.4,-999.0,63,-99.99,,,0.00,Acu-Link.com,2013-03-29 20:12:00,
2013-03-29 16:27:00,51.6,39.4,30.38,WNW,292,5.1,-999.0,63,-99.99,,,0.00,Acu-Link.com,2013-03-29 20:27:00,
2013-03-29 16:43:00,50.7,38.6,30.38,North,0,3.8,-999.0,63,-99.99,,,0.00,Acu-Link.com,2013-03-29 20:43:00,
2013-03-29 16:58:00,50.4,39.0,30.37,WNW,292,3.8,-999.0,65,-99.99,,,0.00,Acu-Link.com,2013-03-29 20:58:00,
2013-03-29 17:13:00,50.0,38.3,30.38,West,270,10.3,-999.0,64,-99.99,,,0.00,Acu-Link.com,2013-03-29 21:13:00,
2013-03-29 17:28:00,50.0,38.7,30.38,SW,225,4.3,-999.0,65,-99.99,,,0.00,Acu-Link.com,2013-03-29 21:28:00,
2013-03-29 17:43:00,48.9,37.7,30.38,West,270,8.3,-999.0,65,-99.99,,,0.00,Acu-Link.com,2013-03-29 21:43:00,
2013-03-29 17:59:00,48.4,36.8,30.38,West,270,9.4,-999.0,64,-99.99,,,0.00,Acu-Link.com,2013-03-29 21:59:00,
2013-03-29 18:14:00,47.5,35.9,30.39,West,270,9.4,-999.0,64,-99.99,,,0.00,Acu-Link.com,2013-03-29 22:14:00,
2013-03-29 18:29:00,46.8,35.2,30.40,WNW,292,7.8,-999.0,64,-99.99,,,0.00,Acu-Link.com,2013-03-29 22:29:00,
2013-03-29 18:44:00,45.7,35.0,30.40,West,270,4.3,-999.0,66,-99.99,,,0.00,Acu-Link.com,2013-03-29 22:44:00,
2013-03-29 18:59:00,44.8,33.7,30.40,NW,315,4.7,-999.0,65,-99.99,,,0.00,Acu-Link.com,2013-03-29 22:59:00,
2013-03-29 19:15:00,44.4,34.2,30.41,WNW,292,6.3,-999.0,67,-99.99,,,0.00,Acu-Link.com,2013-03-29 23:15:00,
2013-03-29 19:30:00,44.2,34.0,30.41,NW,315,6.3,-999.0,67,-99.99,,,0.00,Acu-Link.com,2013-03-29 23:30:00,
2013-03-29 19:45:00,43.9,34.0,30.42,NW,315,3.8,-999.0,68,-99.99,,,0.00,Acu-Link.com,2013-03-29 23:45:00,
2013-03-29 20:00:00,43.7,34.2,30.42,West,270,3.8,-999.0,69,-99.99,,,0.00,Acu-Link.com,2013-03-30 00:00:00,
2013-03-29 20:15:00,43.2,34.1,30.42,NNE,22,7.8,-999.0,70,-99.99,,,0.00,Acu-Link.com,2013-03-30 00:15:00,
2013-03-29 20:31:00,43.0,34.2,30.43,West,270,5.8,-999.0,71,-99.99,,,0.00,Acu-Link.com,2013-03-30 00:31:00,
2013-03-29 20:46:00,42.8,34.4,30.43,NW,315,6.7,-999.0,72,-99.99,,,0.00,Acu-Link.com,2013-03-30 00:46:00,
2013-03-29 21:01:00,42.4,34.4,30.43,WNW,292,3.8,-999.0,73,-99.99,,,0.00,Acu-Link.com,2013-03-30 01:01:00,
2013-03-29 21:16:00,42.1,34.4,30.44,NW,315,4.7,-999.0,74,-99.99,,,0.00,Acu-Link.com,2013-03-30 01:16:00,
2013-03-29 21:31:00,41.5,34.2,30.44,WNW,292,3.8,-999.0,75,-99.99,,,0.00,Acu-Link.com,2013-03-30 01:31:00,
2013-03-29 21:47:00,40.6,33.7,30.44,WNW,292,4.7,-999.0,76,-99.99,,,0.00,Acu-Link.com,2013-03-30 01:47:00,
2013-03-29 22:02:00,40.1,33.8,30.44,WNW,292,2.2,-999.0,78,-99.99,,,0.00,Acu-Link.com,2013-03-30 02:02:00,
2013-03-29 22:17:00,39.6,33.9,30.44,NW,315,5.8,-999.0,80,-99.99,,,0.00,Acu-Link.com,2013-03-30 02:17:00,
2013-03-29 22:32:00,39.2,33.9,30.45,NW,315,1.6,-999.0,81,-99.99,,,0.00,Acu-Link.com,2013-03-30 02:32:00,
2013-03-29 22:48:00,38.8,33.8,30.45,WNW,292,2.7,-999.0,82,-99.99,,,0.00,Acu-Link.com,2013-03-30 02:48:00,
2013-03-29 23:03:00,39.6,34.2,30.45,West,270,3.8,-999.0,81,-99.99,,,0.00,Acu-Link.com,2013-03-30 03:03:00,
2013-03-29 23:18:00,39.6,33.9,30.45,NW,315,5.1,-999.0,80,-99.99,,,0.00,Acu-Link.com,2013-03-30 03:18:00,
2013-03-29 23:33:00,40.1,34.4,30.44,West,270,4.3,-999.0,80,-99.99,,,0.00,Acu-Link.com,2013-03-30 03:33:00,
2013-03-29 23:48:00,40.1,34.4,30.45,NW,315,6.7,-999.0,80,-99.99,,,0.00,Acu-Link.com,2013-03-30 03:48:00,